Time;durP1;ratioP1;P1;durP2;ratioP2;P2;SDS_P1;SDS_P2;PMS_P1;PMS_P2;Temp;Humidity;BMP_temperature;BMP_pressure;BME280_temperature;BME280_humidity;BME280_pressure;Samples;Min_cycle;Max_cycle;Signal;HPM_P1;HPM_P2
2021/12/12 00:02:06;;;;;;;4.60;3.35;;;16.80;55.90;;;;;;5052180;28;20175;-60
2021/12/12 00:04:35;;;;;;;3.42;2.97;;;16.80;55.90;;;;;;5051122;28;20206;-60
2021/12/12 00:07:03;;;;;;;3.47;3.15;;;16.80;55.90;;;;;;5051961;28;20179;-60
2021/12/12 00:09:40;;;;;;;3.78;3.38;;;16.70;55.90;;;;;;5051696;28;20265;-61
2021/12/12 00:12:13;;;;;;;4.10;3.20;;;16.70;55.90;;;;;;5051583;28;20293;-60
2021/12/12 00:14:39;;;;;;;3.50;3.20;;;16.70;56.00;;;;;;5051643;28;20200;-62
2021/12/12 00:17:05;;;;;;;4.13;3.63;;;16.70;56.00;;;;;;5051664;28;20170;-62
2021/12/12 00:19:31;;;;;;;3.28;2.95;;;16.70;56.00;;;;;;5050864;28;20175;-61
2021/12/12 00:21:58;;;;;;;4.68;3.38;;;16.70;56.00;;;;;;5051700;28;20661;-59
2021/12/12 00:24:24;;;;;;;4.10;3.40;;;16.70;56.00;;;;;;5051790;28;20175;-61
2021/12/12 00:26:50;;;;;;;3.22;2.92;;;16.70;56.00;;;;;;5051254;28;20483;-61
2021/12/12 00:29:16;;;;;;;3.08;2.80;;;16.60;56.00;;;;;;5051649;28;20512;-62
2021/12/12 00:31:42;;;;;;;4.95;3.47;;;16.60;56.00;;;;;;5051509;28;20222;-60
2021/12/12 00:34:08;;;;;;;3.85;3.40;;;16.60;56.00;;;;;;5050993;28;20172;-61
2021/12/12 00:36:34;;;;;;;4.63;3.28;;;16.60;56.00;;;;;;5051485;28;20182;-60
2021/12/12 00:39:29;;;;;;;3.58;2.78;;;16.60;56.10;;;;;;5051782;28;20187;-60
2021/12/12 00:42:16;;;;;;;3.40;3.10;;;16.60;56.10;;;;;;5046257;28;20565;-60
2021/12/12 00:44:44;;;;;;;5.60;4.00;;;16.60;56.10;;;;;;5051137;28;20186;-60
2021/12/12 00:47:10;;;;;;;3.90;3.05;;;16.60;56.10;;;;;;5051049;28;20189;-61
2021/12/12 00:49:38;;;;;;;4.00;3.40;;;16.60;56.10;;;;;;5051435;28;20170;-60
2021/12/12 00:52:05;;;;;;;4.63;3.60;;;16.50;56.10;;;;;;5055535;28;20241;-60
2021/12/12 00:54:33;;;;;;;4.15;2.80;;;16.50;56.10;;;;;;5054262;28;20226;-61
2021/12/12 00:56:59;;;;;;;4.90;3.50;;;16.50;56.10;;;;;;5055491;28;20175;-60
2021/12/12 00:59:26;;;;;;;3.33;2.80;;;16.50;56.10;;;;;;5055382;28;20175;-61
2021/12/12 01:01:51;;;;;;;3.88;3.25;;;16.50;56.10;;;;;;5055015;28;20257;-60
2021/12/12 01:04:38;;;;;;;3.80;3.50;;;16.50;56.10;;;;;;5055665;28;20640;-60
2021/12/12 01:07:06;;;;;;;4.07;2.97;;;16.50;56.10;;;;;;5055482;28;20179;-59
2021/12/12 01:09:34;;;;;;;4.15;3.70;;;16.50;56.10;;;;;;5054129;28;20544;-61
2021/12/12 01:12:04;;;;;;;4.97;3.17;;;16.50;56.10;;;;;;5055574;28;20179;-60
2021/12/12 01:14:33;;;;;;;4.05;3.55;;;16.40;56.10;;;;;;5054919;28;20652;-60
2021/12/12 01:17:15;;;;;;;3.80;3.15;;;16.40;56.10;;;;;;5054648;28;20207;-60
2021/12/12 01:19:49;;;;;;;4.55;2.95;;;16.40;56.10;;;;;;5055030;28;20540;-61
2021/12/12 01:22:21;;;;;;;5.93;3.42;;;16.40;56.10;;;;;;5054673;28;20543;-61
2021/12/12 01:24:48;;;;;;;3.22;2.85;;;16.40;56.10;;;;;;5055374;28;20320;-61
2021/12/12 01:27:14;;;;;;;3.28;2.92;;;16.40;56.20;;;;;;5054976;28;20191;-61
2021/12/12 01:29:39;;;;;;;3.45;3.10;;;16.40;56.20;;;;;;5053783;28;20175;-62
2021/12/12 01:32:11;;;;;;;3.38;3.08;;;16.40;56.30;;;;;;5055353;28;20187;-60
2021/12/12 01:34:37;;;;;;;3.45;3.10;;;16.40;56.20;;;;;;5054249;28;20183;-61
2021/12/12 01:37:34;;;;;;;4.13;2.75;;;16.30;56.20;;;;;;5054091;28;20183;-61
2021/12/12 01:40:00;;;;;;;5.00;2.92;;;16.30;56.80;;;;;;5054507;28;20653;-61
2021/12/12 01:42:32;;;;;;;4.10;3.28;;;16.30;56.20;;;;;;5054376;28;20183;-60
2021/12/12 01:45:05;;;;;;;3.83;2.90;;;16.30;56.30;;;;;;5053799;28;20179;-61
2021/12/12 01:47:45;;;;;;;3.50;3.20;;;16.30;56.20;;;;;;5054420;28;20175;-61
2021/12/12 01:50:14;;;;;;;4.70;3.20;;;16.30;56.20;;;;;;5052594;28;20206;-60
2021/12/12 01:52:40;;;;;;;3.85;3.05;;;16.30;56.30;;;;;;5054099;28;20280;-60
2021/12/12 01:55:21;;;;;;;4.80;3.25;;;16.30;56.30;;;;;;5053163;28;20197;-60
2021/12/12 01:57:46;;;;;;;4.15;3.13;;;16.30;56.30;;;;;;5053838;28;20175;-61
2021/12/12 02:00:19;;;;;;;3.22;2.92;;;16.20;56.20;;;;;;5052958;28;20206;-61
2021/12/12 02:02:45;;;;;;;3.42;2.67;;;16.20;56.30;;;;;;5054155;28;20186;-61
2021/12/12 02:05:12;;;;;;;3.45;2.90;;;16.20;56.20;;;;;;5052255;28;20233;-60
2021/12/12 02:07:40;;;;;;;3.67;2.85;;;16.20;56.40;;;;;;5052933;28;20173;-60
2021/12/12 02:10:19;;;;;;;3.08;2.75;;;16.20;56.30;;;;;;5054121;28;20210;-60
2021/12/12 02:12:45;;;;;;;3.97;3.05;;;16.20;56.40;;;;;;5053542;28;20178;-61
2021/12/12 02:15:11;;;;;;;5.25;3.20;;;16.20;56.30;;;;;;5053947;28;20262;-60
2021/12/12 02:17:42;;;;;;;3.97;2.95;;;16.20;56.40;;;;;;5053575;28;20612;-60
2021/12/12 02:20:21;;;;;;;5.85;3.20;;;16.20;56.40;;;;;;5053406;28;20214;-60
2021/12/12 02:23:14;;;;;;;2.90;2.65;;;16.20;56.30;;;;;;5053858;28;20244;-60
2021/12/12 02:36:41;;;;;;;4.00;2.88;;;16.10;56.40;;;;;;5052612;28;20178;-60
2021/12/12 02:39:15;;;;;;;3.47;2.97;;;16.10;56.40;;;;;;5054032;28;20231;-61
2021/12/12 02:41:40;;;;;;;4.03;2.67;;;16.10;56.50;;;;;;5053492;28;20222;-60
2021/12/12 02:44:07;;;;;;;3.03;2.70;;;16.10;56.50;;;;;;5053595;28;20204;-60
2021/12/12 02:46:35;;;;;;;3.22;2.67;;;16.10;56.40;;;;;;5052420;28;20819;-60
2021/12/12 02:49:12;;;;;;;3.13;2.83;;;16.10;56.40;;;;;;5053604;28;20211;-60
2021/12/12 02:51:39;;;;;;;3.70;2.97;;;16.00;56.30;;;;;;5052967;28;20674;-61
2021/12/12 02:54:05;;;;;;;3.47;3.03;;;16.00;56.50;;;;;;5052447;28;20322;-61
2021/12/12 02:56:39;;;;;;;3.95;3.08;;;16.00;56.40;;;;;;5053012;28;20179;-61
2021/12/12 02:59:07;;;;;;;2.65;2.42;;;16.00;56.40;;;;;;5053576;28;20690;-61
2021/12/12 03:01:41;;;;;;;3.28;2.75;;;16.00;56.50;;;;;;5052336;28;20233;-61
2021/12/12 03:04:06;;;;;;;3.90;2.75;;;16.00;56.40;;;;;;5053029;28;20179;-60
2021/12/12 03:06:33;;;;;;;3.22;2.75;;;16.00;56.50;;;;;;5052804;28;20179;-60
2021/12/12 03:09:14;;;;;;;3.50;2.97;;;16.00;56.50;;;;;;5052168;28;20547;-60
2021/12/12 03:11:42;;;;;;;2.90;2.60;;;16.00;56.50;;;;;;5052711;28;20734;-60
2021/12/12 03:14:08;;;;;;;4.43;2.85;;;16.00;56.60;;;;;;5052253;28;20167;-60
2021/12/12 03:16:33;;;;;;;3.08;2.33;;;16.00;56.50;;;;;;5051852;28;20175;-60
2021/12/12 03:18:59;;;;;;;3.53;2.50;;;16.00;56.60;;;;;;5052969;28;20167;-61
2021/12/12 03:21:30;;;;;;;4.03;3.05;;;15.90;56.50;;;;;;5052223;28;20269;-60
2021/12/12 03:24:02;;;;;;;2.78;2.53;;;15.90;56.60;;;;;;5052774;28;20530;-60
2021/12/12 03:26:27;;;;;;;4.32;2.85;;;15.90;56.50;;;;;;5052493;28;20541;-59
2021/12/12 03:28:54;;;;;;;3.55;2.60;;;15.90;56.50;;;;;;5052016;28;20213;-60
2021/12/12 03:31:32;;;;;;;4.22;2.75;;;15.90;56.50;;;;;;5052159;28;20213;-59
2021/12/12 03:33:59;;;;;;;4.97;3.30;;;15.90;56.50;;;;;;5052837;28;20178;-59
2021/12/12 03:36:24;;;;;;;4.00;2.88;;;15.90;56.60;;;;;;5051652;28;20179;-60
2021/12/12 03:38:54;;;;;;;3.25;2.47;;;15.90;56.60;;;;;;5052557;28;20236;-60
2021/12/12 03:41:26;;;;;;;3.08;2.67;;;15.90;56.60;;;;;;5052212;28;20602;-60
2021/12/12 03:43:54;;;;;;;3.92;2.80;;;15.90;56.60;;;;;;5051487;28;20205;-60
2021/12/12 03:46:19;;;;;;;4.10;3.17;;;15.90;56.40;;;;;;5052352;28;20183;-60
2021/12/12 03:48:45;;;;;;;4.55;2.80;;;15.90;56.70;;;;;;5052383;28;20178;-60
2021/12/12 03:51:13;;;;;;;3.88;3.05;;;15.80;56.40;;;;;;5051455;28;20226;-61
2021/12/12 03:53:39;;;;;;;4.03;2.70;;;15.80;56.50;;;;;;5051726;28;20715;-61
2021/12/12 03:56:06;;;;;;;3.20;2.90;;;15.80;56.40;;;;;;5052129;28;20684;-60
2021/12/12 03:58:31;;;;;;;3.15;2.40;;;15.80;56.30;;;;;;5051135;28;20182;-61
2021/12/12 04:00:58;;;;;;;2.88;2.25;;;15.80;56.50;;;;;;5052239;28;20175;-61
2021/12/12 04:03:24;;;;;;;3.38;2.42;;;15.80;56.50;;;;;;5051956;28;20171;-61
2021/12/12 04:06:00;;;;;;;3.00;2.53;;;15.80;56.50;;;;;;5051476;28;20262;-60
2021/12/12 04:08:27;;;;;;;2.60;2.38;;;15.80;56.50;;;;;;5051758;28;20268;-60
2021/12/12 04:10:52;;;;;;;3.92;2.80;;;15.80;56.30;;;;;;5051105;28;20227;-60
2021/12/12 04:13:18;;;;;;;3.20;2.90;;;15.80;56.40;;;;;;5052075;28;20186;-61
2021/12/12 04:15:43;;;;;;;3.83;2.85;;;15.70;56.40;;;;;;5051696;28;20630;-60
2021/12/12 04:18:12;;;;;;;3.22;2.70;;;15.80;56.40;;;;;;5049765;28;20182;-62
2021/12/12 04:20:38;;;;;;;3.20;2.65;;;15.80;56.40;;;;;;5051520;28;20179;-61
2021/12/12 04:23:13;;;;;;;3.38;2.40;;;15.70;56.30;;;;;;5051909;28;20187;-59
2021/12/12 04:25:38;;;;;;;3.20;2.90;;;15.70;56.40;;;;;;5049470;28;20170;-60
2021/12/12 04:28:04;;;;;;;2.78;2.33;;;15.70;56.40;;;;;;5051948;28;20170;-59
2021/12/12 04:30:29;;;;;;;3.88;2.47;;;15.70;56.30;;;;;;5051192;28;20284;-61
2021/12/12 04:32:55;;;;;;;2.85;2.63;;;15.70;56.40;;;;;;5050740;28;20613;-59
2021/12/12 04:35:22;;;;;;;2.58;2.38;;;15.70;56.50;;;;;;5051418;28;20175;-61
2021/12/12 04:37:48;;;;;;;3.38;2.78;;;15.70;56.40;;;;;;5051620;28;20186;-59
2021/12/12 04:40:16;;;;;;;3.92;2.50;;;15.70;56.30;;;;;;5050824;28;20486;-60
2021/12/12 04:42:42;;;;;;;2.60;2.40;;;15.70;56.40;;;;;;5051281;28;20604;-61
2021/12/12 04:45:20;;;;;;;2.75;2.50;;;15.70;56.60;;;;;;5051774;28;20202;-61
2021/12/12 04:50:55;;;;;;;2.75;2.17;;;15.70;56.40;;;;;;5050046;28;20229;-61
2021/12/12 04:53:26;;;;;;;3.45;2.33;;;15.70;56.60;;;;;;5050477;28;20230;-60
2021/12/12 04:56:08;;;;;;;2.83;2.25;;;15.60;56.50;;;;;;5051522;28;20266;-60
2021/12/12 04:58:43;;;;;;;2.72;2.17;;;15.60;56.40;;;;;;5035185;28;20179;-61
2021/12/12 05:01:23;;;;;;;1.83;1.73;;;15.60;56.40;;;;;;5033226;28;20179;-61
2021/12/12 05:04:02;;;;;;;2.78;2.30;;;15.60;56.40;;;;;;5051629;28;20225;-61
2021/12/12 05:06:32;;;;;;;2.67;2.30;;;15.60;56.60;;;;;;5051246;28;20179;-61
2021/12/12 05:09:09;;;;;;;2.90;2.40;;;15.60;56.40;;;;;;5033442;28;20179;-60
2021/12/12 05:12:04;;;;;;;3.00;2.40;;;15.60;56.50;;;;;;5051313;28;20222;-61
2021/12/12 05:14:36;;;;;;;2.88;2.33;;;15.60;56.40;;;;;;5050260;28;20705;-61
2021/12/12 05:17:20;;;;;;;2.97;2.30;;;15.60;56.40;;;;;;5050095;28;20596;-61
2021/12/12 05:19:48;;;;;;;2.60;2.40;;;15.60;56.60;;;;;;5050280;28;20171;-61
2021/12/12 05:22:25;;;;;;;2.28;2.08;;;15.60;56.70;;;;;;5049456;28;20175;-60
2021/12/12 05:24:51;;;;;;;2.28;2.10;;;15.60;56.70;;;;;;5049886;28;20530;-61
2021/12/12 05:27:18;;;;;;;3.15;2.15;;;15.60;56.60;;;;;;5050103;28;20368;-61
2021/12/12 05:29:49;;;;;;;2.90;2.33;;;15.50;56.70;;;;;;5048869;28;20289;-61
2021/12/12 05:32:15;;;;;;;2.83;2.60;;;15.60;56.50;;;;;;5033790;28;20274;-60
2021/12/12 05:34:42;;;;;;;2.75;2.33;;;15.50;56.50;;;;;;5033244;28;20651;-61
2021/12/12 05:37:09;;;;;;;2.25;2.03;;;15.50;56.80;;;;;;5051144;28;20572;-60
2021/12/12 05:39:35;;;;;;;2.22;2.03;;;15.50;56.80;;;;;;5053250;28;20179;-61
2021/12/12 05:42:00;;;;;;;2.03;1.80;;;15.50;56.60;;;;;;5036725;28;20175;-59
2021/12/12 05:44:27;;;;;;;2.22;1.90;;;15.50;56.70;;;;;;5052286;28;20254;-60
2021/12/12 05:46:58;;;;;;;2.25;2.05;;;15.50;56.70;;;;;;5053623;28;20269;-60
2021/12/12 05:49:23;;;;;;;2.17;1.98;;;15.50;56.70;;;;;;5053598;28;20295;-59
2021/12/12 05:51:49;;;;;;;2.28;2.08;;;15.50;56.60;;;;;;5054603;28;20715;-60
2021/12/12 05:54:14;;;;;;;2.42;2.22;;;15.50;56.70;;;;;;5053157;28;20219;-59
2021/12/12 05:56:40;;;;;;;2.28;2.08;;;15.50;56.80;;;;;;5035521;28;20179;-61
2021/12/12 05:59:10;;;;;;;2.72;2.00;;;15.50;56.70;;;;;;5054524;28;20179;-61
2021/12/12 06:01:35;;;;;;;2.30;2.10;;;15.50;56.80;;;;;;5054128;28;20278;-61
2021/12/12 06:04:01;;;;;;;2.40;2.20;;;15.50;56.60;;;;;;5035860;28;20191;-60
2021/12/12 06:06:32;;;;;;;2.28;1.95;;;15.50;56.50;;;;;;5036241;28;20241;-60
2021/12/12 06:09:00;;;;;;;2.15;1.90;;;15.50;56.60;;;;;;5054242;28;20175;-60
2021/12/12 06:11:28;;;;;;;1.90;1.80;;;15.60;56.50;;;;;;5051926;28;20206;-60
2021/12/12 06:13:54;;;;;;;2.35;1.90;;;15.70;56.50;;;;;;5054161;28;20182;-61
2021/12/12 06:16:20;;;;;;;2.03;1.80;;;15.70;56.10;;;;;;5052689;28;20171;-60
2021/12/12 06:19:06;;;;;;;2.35;1.80;;;15.80;56.00;;;;;;5052325;28;20179;-61
2021/12/12 06:21:32;;;;;;;1.75;1.60;;;15.90;55.90;;;;;;5052428;28;20183;-61
2021/12/12 06:23:58;;;;;;;2.30;1.80;;;16.10;55.80;;;;;;5054041;28;20171;-61
2021/12/12 06:26:23;;;;;;;2.13;1.92;;;16.10;55.70;;;;;;5052919;28;20486;-60
2021/12/12 06:28:49;;;;;;;1.75;1.65;;;16.20;55.50;;;;;;5054195;28;20163;-61
2021/12/12 06:31:15;;;;;;;1.50;1.40;;;16.30;55.50;;;;;;5053881;28;20301;-61
2021/12/12 06:33:40;;;;;;;2.00;1.70;;;16.30;55.30;;;;;;5053018;28;20261;-61
2021/12/12 06:36:07;;;;;;;2.78;2.05;;;16.20;55.30;;;;;;5053884;28;20566;-60
2021/12/12 06:38:33;;;;;;;2.28;1.70;;;16.30;55.40;;;;;;5052863;28;20213;-60
2021/12/12 06:40:58;;;;;;;1.85;1.38;;;16.20;55.40;;;;;;5053537;28;20179;-61
2021/12/12 06:43:24;;;;;;;1.67;1.58;;;16.20;55.40;;;;;;5053285;28;20581;-60
2021/12/12 06:45:50;;;;;;;3.00;1.63;;;16.20;56.20;;;;;;5052779;28;20179;-61
2021/12/12 06:48:16;;;;;;;1.75;1.65;;;16.20;55.60;;;;;;5052550;28;20201;-61
2021/12/12 06:50:44;;;;;;;1.70;1.40;;;16.20;55.60;;;;;;5053119;28;20504;-61
2021/12/12 06:53:10;;;;;;;1.77;1.50;;;16.20;55.60;;;;;;5052543;28;20219;-61
2021/12/12 06:55:36;;;;;;;1.80;1.42;;;16.30;55.50;;;;;;5051639;28;20182;-61
2021/12/12 06:58:04;;;;;;;1.85;1.60;;;16.30;55.50;;;;;;5053713;28;20225;-61
2021/12/12 07:00:30;;;;;;;1.80;1.70;;;16.30;55.50;;;;;;5052246;28;20614;-60
2021/12/12 07:02:55;;;;;;;1.77;1.60;;;16.30;55.50;;;;;;5053343;28;20182;-61
2021/12/12 07:05:24;;;;;;;1.70;1.50;;;16.40;55.60;;;;;;5051666;28;20175;-61
2021/12/12 07:07:50;;;;;;;1.67;1.58;;;16.40;55.50;;;;;;5052457;28;20186;-60
2021/12/12 07:10:16;;;;;;;1.80;1.65;;;16.40;55.40;;;;;;5053262;28;20202;-61
2021/12/12 07:12:42;;;;;;;1.75;1.40;;;16.50;55.30;;;;;;5053014;28;20202;-61
2021/12/12 07:15:09;;;;;;;1.50;1.40;;;16.60;55.20;;;;;;5052562;28;20171;-61
2021/12/12 07:17:34;;;;;;;1.70;1.60;;;16.70;55.10;;;;;;5052544;28;20175;-61
2021/12/12 07:20:00;;;;;;;1.50;1.30;;;16.90;55.00;;;;;;5035083;28;20539;-61
2021/12/12 07:22:25;;;;;;;1.75;1.65;;;17.00;54.80;;;;;;5034027;28;20175;-60
2021/12/12 07:24:51;;;;;;;1.48;1.38;;;17.00;54.70;;;;;;5035549;28;20179;-61
2021/12/12 07:27:16;;;;;;;1.40;1.30;;;17.10;54.60;;;;;;5052829;28;20186;-61
2021/12/12 07:29:42;;;;;;;1.55;1.45;;;17.20;54.40;;;;;;5050298;28;20634;-60
2021/12/12 07:32:10;;;;;;;1.42;1.27;;;17.40;54.20;;;;;;5051537;28;20191;-60
2021/12/12 07:34:36;;;;;;;1.50;1.40;;;17.70;53.80;;;;;;5051982;28;20258;-60
2021/12/12 07:37:05;;;;;;;2.17;1.67;;;17.90;53.30;;;;;;5052323;28;20266;-59
2021/12/12 07:39:31;;;;;;;1.58;1.30;;;18.20;52.90;;;;;;5052275;28;20237;-61
2021/12/12 07:41:57;;;;;;;1.50;1.40;;;18.30;52.50;;;;;;5051975;28;20171;-61
2021/12/12 07:44:25;;;;;;;1.50;1.40;;;18.40;52.30;;;;;;5052175;28;20642;-60
2021/12/12 07:46:54;;;;;;;2.05;1.48;;;18.60;52.00;;;;;;5052562;28;20175;-60
2021/12/12 07:49:30;;;;;;;1.40;1.20;;;18.60;52.00;;;;;;5051373;28;20198;-60
2021/12/12 07:51:56;;;;;;;1.52;1.20;;;18.70;52.00;;;;;;5052667;28;20218;-60
2021/12/12 07:54:22;;;;;;;1.25;1.15;;;18.70;51.90;;;;;;5051840;28;20357;-60
2021/12/12 07:56:47;;;;;;;1.48;1.38;;;18.80;51.90;;;;;;5050575;28;20254;-60
2021/12/12 07:59:16;;;;;;;1.23;1.10;;;18.70;52.00;;;;;;5051855;28;20187;-60
2021/12/12 08:01:44;;;;;;;1.38;1.30;;;18.70;52.10;;;;;;5051931;28;20257;-61
2021/12/12 08:04:10;;;;;;;1.88;1.30;;;18.70;52.20;;;;;;5051494;28;20281;-60
2021/12/12 08:06:38;;;;;;;1.63;1.20;;;18.70;52.80;;;;;;5050728;28;20198;-69
2021/12/12 08:09:04;;;;;;;1.50;1.40;;;18.60;52.40;;;;;;5034543;28;20605;-68
2021/12/12 08:11:30;;;;;;;1.33;1.23;;;18.60;52.40;;;;;;5051064;28;20298;-66
2021/12/12 08:13:56;;;;;;;1.48;1.38;;;18.60;52.50;;;;;;5052214;28;20206;-67
2021/12/12 08:16:22;;;;;;;1.38;1.27;;;18.50;52.70;;;;;;5051699;28;20186;-67
2021/12/12 08:18:47;;;;;;;1.50;1.40;;;18.40;52.80;;;;;;5049924;28;20570;-67
2021/12/12 08:21:13;;;;;;;1.42;1.20;;;18.40;53.00;;;;;;5050450;28;20175;-66
2021/12/12 08:23:38;;;;;;;1.85;1.52;;;18.30;53.00;;;;;;5051639;28;20179;-65
2021/12/12 08:26:05;;;;;;;1.98;1.20;;;18.40;53.10;;;;;;5049949;28;20183;-66
2021/12/12 08:28:31;;;;;;;1.48;1.33;;;18.40;53.00;;;;;;5050136;28;20638;-66
2021/12/12 08:30:56;;;;;;;1.60;1.08;;;18.40;52.80;;;;;;5051139;28;20233;-68
2021/12/12 08:33:22;;;;;;;1.30;1.20;;;18.50;52.90;;;;;;5051332;28;20183;-70
2021/12/12 08:35:48;;;;;;;1.63;1.10;;;18.50;52.80;;;;;;5051892;28;20187;-68
2021/12/12 08:38:13;;;;;;;1.80;1.27;;;18.50;52.70;;;;;;5033313;28;20201;-69
2021/12/12 08:40:43;;;;;;;1.70;1.30;;;18.60;52.70;;;;;;5051619;28;20229;-68
2021/12/12 08:43:12;;;;;;;2.63;1.25;;;18.60;52.70;;;;;;5051726;28;20175;-67
2021/12/12 08:45:40;;;;;;;1.92;1.40;;;18.60;52.60;;;;;;5050728;28;20265;-68
2021/12/12 08:48:05;;;;;;;3.90;1.50;;;18.70;52.80;;;;;;5051455;28;20190;-66
2021/12/12 08:50:32;;;;;;;2.65;1.10;;;18.70;53.10;;;;;;5033402;28;20210;-67
2021/12/12 08:52:58;;;;;;;1.52;1.42;;;18.60;53.10;;;;;;5050863;28;20230;-66
2021/12/12 08:55:31;;;;;;;1.67;1.02;;;18.60;53.30;;;;;;5051180;28;20178;-66
2021/12/12 09:00:22;;;;;;;1.10;1.10;;;18.60;53.40;;;;;;5050395;28;20163;-69
2021/12/12 09:02:49;;;;;;;2.63;1.42;;;18.60;53.50;;;;;;5051645;28;20749;-67
2021/12/12 09:05:17;;;;;;;1.27;1.23;;;18.70;53.40;;;;;;5051671;28;20179;-67
2021/12/12 09:07:45;;;;;;;2.20;1.00;;;18.70;53.40;;;;;;5050468;28;20676;-65
2021/12/12 09:10:13;;;;;;;1.77;1.30;;;18.70;53.40;;;;;;5050209;28;20226;-68
2021/12/12 09:12:46;;;;;;;6.10;1.45;;;18.70;53.50;;;;;;5054027;28;20189;-67
2021/12/12 09:15:22;;;;;;;2.88;1.35;;;18.60;53.50;;;;;;5054556;28;20262;-67
2021/12/12 09:17:50;;;;;;;2.70;1.50;;;18.70;53.50;;;;;;5055523;28;20271;-68
2021/12/12 09:20:31;;;;;;;3.13;1.23;;;18.70;53.50;;;;;;5054476;28;20258;-67
2021/12/12 09:23:13;;;;;;;3.92;1.60;;;18.60;53.60;;;;;;5055152;28;20533;-67
2021/12/12 09:25:50;;;;;;;4.00;1.58;;;18.50;53.70;;;;;;5053466;28;20175;-67
2021/12/12 09:28:40;;;;;;;2.08;1.48;;;18.40;53.90;;;;;;5053416;28;20198;-67
2021/12/12 09:31:08;;;;;;;2.08;1.25;;;18.30;54.20;;;;;;5055066;28;20203;-67
2021/12/12 09:33:50;;;;;;;1.42;1.30;;;18.20;54.30;;;;;;5054633;28;20648;-68
2021/12/12 09:36:39;;;;;;;2.03;1.38;;;18.20;54.40;;;;;;5038265;28;20238;-67
2021/12/12 09:39:27;;;;;;;1.58;1.30;;;18.20;54.50;;;;;;5039045;28;20183;-68
2021/12/12 09:42:34;;;;;;;2.88;1.33;;;18.10;54.50;;;;;;5054278;28;20194;-68
2021/12/12 09:45:38;;;;;;;1.40;1.30;;;18.20;54.50;;;;;;5054795;28;20182;-68
2021/12/12 09:51:15;;;;;;;1.52;1.40;;;18.20;54.40;;;;;;5054965;28;20271;-68
2021/12/12 09:54:05;;;;;;;2.60;1.40;;;18.20;54.40;;;;;;5054230;28;20234;-67
2021/12/12 09:56:46;;;;;;;2.95;1.45;;;18.30;54.40;;;;;;5053595;28;20349;-67
2021/12/12 09:59:32;;;;;;;1.95;1.45;;;18.30;54.30;;;;;;5053618;28;20171;-68
2021/12/12 10:02:06;;;;;;;1.55;1.33;;;18.40;54.30;;;;;;5053613;28;20175;-67
2021/12/12 10:05:11;;;;;;;1.45;1.00;;;18.40;54.20;;;;;;5053486;28;20177;-68
2021/12/12 10:07:58;;;;;;;2.85;1.40;;;18.40;54.10;;;;;;5053055;28;20187;-67
2021/12/12 10:10:33;;;;;;;1.88;1.45;;;18.40;54.20;;;;;;5053370;28;20306;-67
2021/12/12 10:13:17;;;;;;;2.00;1.73;;;18.40;54.20;;;;;;5054402;28;20183;-67
2021/12/12 10:15:45;;;;;;;2.63;1.60;;;18.40;54.20;;;;;;5053742;28;20174;-66
2021/12/12 10:18:24;;;;;;;1.42;1.33;;;18.40;54.40;;;;;;5052478;28;20229;-66
2021/12/12 10:21:05;;;;;;;1.30;1.20;;;18.30;54.50;;;;;;5052843;28;20248;-66
2021/12/12 10:23:55;;;;;;;2.00;1.42;;;18.20;54.60;;;;;;5051680;28;20249;-66
2021/12/12 10:26:41;;;;;;;2.67;1.38;;;18.10;54.80;;;;;;5037321;28;20193;-67
2021/12/12 10:29:21;;;;;;;3.50;1.30;;;18.10;54.80;;;;;;5052563;28;20605;-67
2021/12/12 10:31:54;;;;;;;1.95;1.40;;;18.10;54.90;;;;;;5051840;28;20405;-67
2021/12/12 10:34:36;;;;;;;2.88;1.60;;;18.10;54.90;;;;;;5036476;28;20184;-68
2021/12/12 10:37:08;;;;;;;1.80;1.60;;;18.20;54.80;;;;;;5053984;28;20179;-68
2021/12/12 10:39:39;;;;;;;1.98;1.58;;;18.20;54.70;;;;;;5052817;28;20183;-68
2021/12/12 10:42:09;;;;;;;1.92;1.48;;;18.20;54.70;;;;;;5036078;28;20549;-68
2021/12/12 10:44:55;;;;;;;2.03;1.73;;;18.30;54.70;;;;;;5034920;28;20178;-68
2021/12/12 10:47:30;;;;;;;1.55;1.27;;;18.30;54.60;;;;;;5053222;28;20607;-67
2021/12/12 10:50:29;;;;;;;1.75;1.20;;;18.30;54.50;;;;;;5052471;28;20189;-68
2021/12/12 10:53:08;;;;;;;1.95;1.60;;;18.30;54.60;;;;;;5052636;28;20321;-67
2021/12/12 10:55:43;;;;;;;1.73;1.50;;;18.20;54.70;;;;;;5036574;28;20672;-68
2021/12/12 10:58:20;;;;;;;1.20;1.10;;;18.10;54.80;;;;;;5052749;28;20187;-68
2021/12/12 11:00:51;;;;;;;1.50;1.40;;;18.10;55.00;;;;;;5052618;28;20324;-69
2021/12/12 11:03:53;;;;;;;2.45;1.38;;;18.00;55.00;;;;;;5052041;28;20186;-65
2021/12/12 11:06:27;;;;;;;2.13;1.48;;;18.10;55.30;;;;;;5052596;28;20175;-66
2021/12/12 11:08:58;;;;;;;3.00;1.65;;;18.10;55.30;;;;;;5053214;28;20222;-67
2021/12/12 11:11:31;;;;;;;6.28;1.67;;;18.10;55.20;;;;;;5051583;28;20552;-66
2021/12/12 11:14:18;;;;;;;2.45;1.50;;;18.10;55.10;;;;;;5050998;28;20690;-69
2021/12/12 11:16:50;;;;;;;1.75;1.20;;;18.20;55.00;;;;;;5052090;28;20175;-65
2021/12/12 11:19:31;;;;;;;3.90;1.10;;;18.20;55.00;;;;;;5053008;28;20265;-65
2021/12/12 11:22:00;;;;;;;4.57;1.33;;;18.20;55.20;;;;;;5051185;28;20582;-66
2021/12/12 11:24:38;;;;;;;6.07;1.35;;;18.20;55.20;;;;;;5051353;28;20632;-65
2021/12/12 11:27:19;;;;;;;4.13;1.35;;;18.20;55.30;;;;;;5051242;28;20194;-65
2021/12/12 11:29:51;;;;;;;1.10;1.00;;;18.10;55.40;;;;;;5051752;28;20250;-67
2021/12/12 11:32:20;;;;;;;2.30;1.40;;;18.00;55.50;;;;;;5052702;28;20191;-65
2021/12/12 11:34:49;;;;;;;3.10;1.27;;;18.00;55.70;;;;;;5050122;28;20544;-67
2021/12/12 11:37:17;;;;;;;1.10;1.10;;;18.00;55.60;;;;;;5052734;28;20583;-67
2021/12/12 11:40:06;;;;;;;2.30;1.20;;;18.10;55.60;;;;;;5052412;28;20191;-68
2021/12/12 11:42:43;;;;;;;2.03;1.00;;;18.10;55.60;;;;;;5051580;28;20175;-74
2021/12/12 11:45:13;;;;;;;1.90;1.10;;;18.20;55.50;;;;;;5052486;28;20167;-71
2021/12/12 11:47:46;;;;;;;2.90;1.30;;;18.40;55.50;;;;;;5051230;28;20198;-69
2021/12/12 11:50:16;;;;;;;3.58;1.10;;;18.10;55.50;;;;;;5050623;28;20214;-69
2021/12/12 11:53:03;;;;;;;1.77;0.90;;;18.10;55.70;;;;;;5050785;28;20265;-67
2021/12/12 11:55:33;;;;;;;2.05;1.20;;;18.10;55.70;;;;;;5034417;28;20202;-66
2021/12/12 11:58:06;;;;;;;2.97;1.35;;;18.00;55.80;;;;;;5052452;28;20177;-68
2021/12/12 12:00:34;;;;;;;2.88;1.38;;;18.00;55.90;;;;;;5052211;28;20179;-67
2021/12/12 12:03:24;;;;;;;1.92;1.15;;;18.00;56.00;;;;;;5050257;28;20203;-68
2021/12/12 12:05:58;;;;;;;2.83;1.50;;;18.00;56.00;;;;;;5052150;28;20633;-68
2021/12/12 12:08:30;;;;;;;2.58;1.33;;;18.00;56.00;;;;;;5051954;28;20250;-68
2021/12/12 12:11:19;;;;;;;3.58;1.10;;;18.00;55.90;;;;;;5033824;28;20211;-68
2021/12/12 12:13:56;;;;;;;1.98;1.30;;;18.00;55.90;;;;;;5050929;28;20241;-67
2021/12/12 12:16:41;;;;;;;1.50;1.17;;;18.00;55.90;;;;;;5050756;28;20215;-67
2021/12/12 12:19:18;;;;;;;1.27;0.90;;;17.90;55.90;;;;;;5052217;28;20220;-68
2021/12/12 12:21:59;;;;;;;2.15;1.10;;;17.90;56.00;;;;;;5050520;28;20185;-67
2021/12/12 12:24:40;;;;;;;2.33;1.25;;;17.90;56.10;;;;;;5050800;28;20179;-67
2021/12/12 12:27:09;;;;;;;1.88;0.88;;;17.80;56.10;;;;;;5051791;28;20561;-67
2021/12/12 12:29:44;;;;;;;2.35;1.20;;;17.80;56.10;;;;;;5051705;28;20273;-68
2021/12/12 12:32:46;;;;;;;3.38;1.10;;;17.80;56.20;;;;;;5051207;28;20263;-68
2021/12/12 12:35:59;;;;;;;1.10;1.00;;;17.80;56.30;;;;;;5051965;28;20178;-68
2021/12/12 12:39:16;;;;;;;1.52;1.20;;;17.80;56.20;;;;;;5050660;28;20261;-68
2021/12/12 12:42:01;;;;;;;1.98;1.10;;;17.80;56.20;;;;;;5051651;28;20186;-67
2021/12/12 12:45:03;;;;;;;1.60;1.40;;;17.80;56.10;;;;;;5050847;28;20193;-68
2021/12/12 12:47:41;;;;;;;1.23;1.13;;;17.80;56.10;;;;;;5054168;28;20206;-67
2021/12/12 12:50:44;;;;;;;1.10;1.00;;;17.80;56.20;;;;;;5055784;28;20183;-68
2021/12/12 12:53:19;;;;;;;1.38;1.27;;;17.70;56.20;;;;;;5054990;28;20222;-67
2021/12/12 12:56:09;;;;;;;1.65;1.02;;;17.80;56.30;;;;;;5055787;28;20174;-68
2021/12/12 12:59:05;;;;;;;1.30;1.20;;;17.70;56.20;;;;;;5054760;28;20266;-68
2021/12/12 13:02:04;;;;;;;1.90;1.05;;;17.70;56.20;;;;;;5055309;28;20182;-65
2021/12/12 13:04:58;;;;;;;1.45;1.00;;;17.80;56.30;;;;;;5054475;28;20185;-65
2021/12/12 13:07:58;;;;;;;1.92;1.17;;;17.90;56.80;;;;;;5053351;28;20183;-65
2021/12/12 13:10:24;;;;;;;1.10;1.00;;;17.90;56.10;;;;;;5055118;28;20207;-63
2021/12/12 13:12:56;;;;;;;1.88;1.00;;;17.80;56.10;;;;;;5037058;28;20270;-62
2021/12/12 13:15:27;;;;;;;2.53;1.30;;;17.80;56.20;;;;;;5055163;28;20175;-64
2021/12/12 13:18:09;;;;;;;2.72;1.30;;;17.80;56.40;;;;;;5054001;28;20191;-63
2021/12/12 13:20:44;;;;;;;1.23;1.13;;;17.80;56.40;;;;;;5054284;28;20175;-63
2021/12/12 13:24:05;;;;;;;1.13;1.05;;;17.80;57.00;;;;;;5055131;28;20178;-62
2021/12/12 13:26:51;;;;;;;1.25;0.85;;;17.90;56.30;;;;;;5018399;28;20191;-64
2021/12/12 13:29:55;;;;;;;1.63;1.08;;;17.90;56.20;;;;;;5053923;28;20183;-64
2021/12/12 13:32:28;;;;;;;1.23;0.88;;;18.00;56.20;;;;;;5054764;28;20210;-70
2021/12/12 13:35:16;;;;;;;1.35;1.10;;;17.90;56.20;;;;;;5054436;28;20179;-67
2021/12/12 13:37:56;;;;;;;3.80;1.30;;;17.90;56.20;;;;;;5053737;28;20266;-65